Current Weather

Waukegan

Waukegan, Illinois (KUGN)

Report from: Thursday, August 18, 2022 10:55 PM CDT
Current time: Thursday, August 18, 2022 11:56 PM CDT

Nearby weather
Weather history
Weather forecast

Temperature18.3°C (64.9°F)
Dew point15.6°C (60.1°F)
Winds 4 kts (2.1 m/s, 4.6 mph) Southwest (230°)
Visibility10 mi. (16.1 km)
Clouds Sky clear
Altimeter29.93 in.Hg (1014 mB)
Relative humidity84 %
Density altitude622 ft. (189 m)
Sea-level pressure101.2 kPa (1012 mB, 29.90 in.Hg)
Remarks Fully automated report
Automated weather observing station with precipitation discriminator
Flight conditions Visual Meteorological Conditions
Raw dataKUGN 190355Z AUTO 23004KT 10SM CLR 18/16 A2993 RMK AO2 SLP124 T01830156
An unhandled exception has occurred. See browser dev tools for details. Reload 🗙